createdAt,value
2022-09-26T00:01:55.682Z,8.23
2022-09-26T00:04:30.433Z,6.15
2022-09-26T00:07:09.749Z,8.57
2022-09-26T00:09:48.530Z,8.43
2022-09-26T00:12:18.625Z,7.22
2022-09-26T00:14:53.067Z,7.45
2022-09-26T00:17:27.094Z,7.18
2022-09-26T00:19:55.214Z,8.30
2022-09-26T00:22:24.033Z,7.00
2022-09-26T00:25:05.241Z,8.25
2022-09-26T00:27:57.929Z,7.45
2022-09-26T00:30:32.908Z,7.97
2022-09-26T00:33:05.914Z,5.85
2022-09-26T00:36:05.144Z,7.70
2022-09-26T00:38:57.179Z,9.20
2022-09-26T00:41:25.790Z,8.20
2022-09-26T00:44:19.465Z,7.22
2022-09-26T00:46:56.537Z,7.13
2022-09-26T00:53:14.232Z,9.30
2022-09-26T00:59:10.964Z,10.65
2022-09-26T01:17:36.045Z,9.43
2022-09-26T01:20:23.975Z,7.63
2022-09-26T01:23:13.455Z,6.82
2022-09-26T01:26:01.741Z,7.65
2022-09-26T01:34:56.521Z,7.10
2022-09-26T01:37:49.811Z,8.55
2022-09-26T01:40:32.928Z,7.82
2022-09-26T01:43:03.500Z,8.02
2022-09-26T01:45:46.109Z,6.47
2022-09-26T01:48:21.194Z,6.80
2022-09-26T01:54:43.475Z,7.28
2022-09-26T02:45:02.348Z,6.18
2022-09-26T02:47:56.980Z,6.80
2022-09-26T02:50:44.699Z,9.63
2022-09-26T02:53:34.568Z,5.80
2022-09-26T03:12:18.849Z,10.18
2022-09-26T03:14:57.893Z,7.82
2022-09-26T03:17:38.092Z,7.93
2022-09-26T03:20:12.839Z,8.43
2022-09-26T03:28:04.615Z,6.72
2022-09-26T03:34:06.290Z,11.23
2022-09-26T03:53:00.484Z,11.13
2022-09-26T03:55:40.323Z,12.80
2022-09-26T03:58:18.233Z,10.07
2022-09-26T04:00:49.281Z,12.75
2022-09-26T04:03:25.788Z,14.32
2022-09-26T04:09:25.574Z,10.02
2022-09-26T04:37:22.973Z,12.13
2022-09-26T05:36:54.843Z,18.38
2022-09-26T05:42:44.932Z,18.15
2022-09-26T05:57:29.821Z,22.70
2022-09-26T06:00:20.208Z,17.48
2022-09-26T06:02:48.428Z,20.25
2022-09-26T06:05:37.213Z,17.10
2022-09-26T06:08:10.381Z,16.85
2022-09-26T06:10:40.149Z,17.60
2022-09-26T06:13:09.187Z,18.08
2022-09-26T06:15:58.741Z,16.80
2022-09-26T06:18:34.816Z,16.85
2022-09-26T06:21:23.142Z,16.30
2022-09-26T06:24:02.472Z,17.17
2022-09-26T06:26:34.262Z,18.65
2022-09-26T06:29:09.901Z,16.02
2022-09-26T06:32:05.595Z,16.67
2022-09-26T06:34:38.957Z,18.50
2022-09-26T06:37:08.124Z,21.92
2022-09-26T06:39:38.806Z,15.38
2022-09-26T06:42:22.000Z,13.35
2022-09-26T06:45:18.792Z,17.42
2022-09-26T06:47:53.196Z,17.25
2022-09-26T06:50:41.424Z,15.90
2022-09-26T06:53:12.451Z,16.33
2022-09-26T06:55:59.559Z,21.58
2022-09-26T06:58:29.110Z,15.52
2022-09-26T07:04:52.327Z,16.73
2022-09-26T07:07:24.425Z,18.05
2022-09-26T07:10:06.649Z,13.30
2022-09-26T07:13:02.888Z,15.32
2022-09-26T07:15:35.311Z,16.25
2022-09-26T07:18:12.647Z,12.30
2022-09-26T07:24:01.879Z,14.48
2022-09-26T07:26:51.888Z,13.45
2022-09-26T07:29:21.326Z,13.32
2022-09-26T07:31:57.567Z,14.65
2022-09-26T07:34:28.959Z,12.73
2022-09-26T07:39:51.157Z,12.27
2022-09-26T07:42:24.669Z,11.73
2022-09-26T07:48:28.491Z,12.57
2022-09-26T07:51:09.112Z,15.52
2022-09-26T07:54:04.517Z,11.30
2022-09-26T07:56:35.440Z,11.55
2022-09-26T07:59:20.581Z,10.55
2022-09-26T08:01:56.232Z,11.30
2022-09-26T08:05:00.162Z,13.35
2022-09-26T08:07:46.430Z,13.00
2022-09-26T08:10:27.656Z,9.85
2022-09-26T08:13:15.252Z,11.65
2022-09-26T08:15:43.570Z,11.45
2022-09-26T08:18:30.000Z,11.65
2022-09-26T08:21:17.089Z,12.95
2022-09-26T08:24:08.857Z,11.05
2022-09-26T08:26:44.062Z,10.10
2022-09-26T08:29:17.352Z,14.68
2022-09-26T08:31:57.590Z,14.15
2022-09-26T08:34:45.807Z,11.52
2022-09-26T08:37:22.352Z,11.73
2022-09-26T08:39:56.297Z,12.40
2022-09-26T08:42:50.299Z,10.68
2022-09-26T08:45:47.675Z,11.80
2022-09-26T08:48:22.966Z,11.80
2022-09-26T08:50:55.010Z,13.57
2022-09-26T08:53:42.400Z,10.77
2022-09-26T08:56:33.655Z,10.75
2022-09-26T08:59:29.332Z,8.98
2022-09-26T09:02:07.269Z,10.98
2022-09-26T09:05:00.311Z,11.80
2022-09-26T09:07:32.244Z,12.15
2022-09-26T09:10:16.618Z,10.52
2022-09-26T09:13:12.602Z,8.82
2022-09-26T09:15:59.288Z,11.88
2022-09-26T09:18:38.644Z,10.20
2022-09-26T09:21:15.925Z,12.63
2022-09-26T09:23:55.199Z,8.68
2022-09-26T09:29:49.353Z,9.75
2022-09-26T09:32:22.906Z,10.05
2022-09-26T09:34:58.156Z,11.75
2022-09-26T09:37:29.601Z,9.88
2022-09-26T09:43:01.032Z,9.82
2022-09-26T09:45:48.401Z,10.48
2022-09-26T09:48:24.453Z,10.32
2022-09-26T09:51:11.842Z,11.40
2022-09-26T09:53:58.217Z,10.18
2022-09-26T09:56:38.892Z,11.35
2022-09-26T09:59:25.378Z,13.23
2022-09-26T10:02:21.124Z,9.82
2022-09-26T10:05:27.784Z,10.43
2022-09-26T10:08:04.856Z,12.13
2022-09-26T10:10:57.419Z,10.25
2022-09-26T10:13:42.138Z,9.93
2022-09-26T10:16:30.035Z,12.20
2022-09-26T10:19:16.279Z,8.23
2022-09-26T10:21:54.991Z,10.65
2022-09-26T10:24:42.113Z,7.43
2022-09-26T10:27:53.268Z,8.73
2022-09-26T10:30:23.196Z,8.43
2022-09-26T10:32:56.738Z,10.50
2022-09-26T10:35:27.762Z,10.45
2022-09-26T10:38:09.116Z,10.43
2022-09-26T10:40:56.795Z,9.02
2022-09-26T10:43:30.053Z,8.75
2022-09-26T10:46:17.450Z,8.77
2022-09-26T10:48:50.605Z,8.30
2022-09-26T10:51:44.520Z,7.38
2022-09-26T10:54:35.501Z,6.15
2022-09-26T10:57:06.150Z,5.32
2022-09-26T10:59:41.398Z,5.15
2022-09-26T11:02:23.207Z,4.47
2022-09-26T11:05:27.273Z,5.22
2022-09-26T11:07:58.043Z,2.95
2022-09-26T11:10:37.665Z,3.30
2022-09-26T11:16:39.508Z,3.85
2022-09-26T11:19:21.254Z,3.35
2022-09-26T11:22:11.171Z,3.35
2022-09-26T11:25:09.084Z,4.75
2022-09-26T11:28:15.973Z,4.75
2022-09-26T11:30:51.692Z,2.88
2022-09-26T11:33:31.049Z,3.20
2022-09-26T11:36:28.484Z,3.40
2022-09-26T11:39:59.002Z,2.90
2022-09-26T11:45:16.772Z,2.00
2022-09-26T11:54:11.543Z,2.15
2022-09-26T12:04:01.853Z,3.65
2022-09-26T13:21:20.698Z,1.70
2022-09-26T13:27:19.885Z,1.83
2022-09-26T13:30:00.375Z,11.75
2022-09-26T13:33:05.795Z,2.23
2022-09-26T13:35:38.784Z,2.42
2022-09-26T13:38:26.668Z,3.28
2022-09-26T13:41:17.807Z,3.08
2022-09-26T13:43:52.733Z,1.40
2022-09-26T13:49:54.522Z,1.80
2022-09-26T13:52:38.392Z,1.45
2022-09-26T13:55:50.558Z,1.33
2022-09-26T13:58:22.422Z,1.52
2022-09-26T14:04:24.807Z,2.97
2022-09-26T14:13:14.152Z,12.38
2022-09-26T14:16:13.856Z,3.03
2022-09-26T14:22:07.692Z,5.22
2022-09-26T14:28:23.030Z,2.28
2022-09-26T14:31:13.739Z,2.85
2022-09-26T14:54:45.268Z,1.48
2022-09-26T15:25:59.681Z,3.22
2022-09-26T15:28:45.809Z,1.42
2022-09-26T15:31:47.870Z,1.50
2022-09-26T15:41:10.106Z,4.22
2022-09-26T15:44:12.161Z,1.80
2022-09-26T15:56:44.021Z,5.68
2022-09-26T16:02:35.795Z,4.15
2022-09-26T16:17:43.473Z,12.43
2022-09-26T16:20:37.502Z,4.93
2022-09-26T16:29:38.090Z,5.47
2022-09-26T16:35:55.609Z,2.20
2022-09-26T16:38:42.817Z,2.83
2022-09-26T16:44:31.893Z,4.93
2022-09-26T16:47:04.961Z,2.88
2022-09-26T16:50:12.593Z,4.05
2022-09-26T16:52:47.658Z,3.13
2022-09-26T16:55:17.816Z,8.43
2022-09-26T16:57:55.322Z,7.82
2022-09-26T17:00:54.555Z,4.35
2022-09-26T17:06:39.477Z,2.45
2022-09-26T17:09:34.505Z,10.48
2022-09-26T17:12:17.163Z,3.25
2022-09-26T17:15:15.820Z,6.35
2022-09-26T17:24:16.094Z,3.15
2022-09-26T17:42:50.418Z,5.70
